createdAt,value
2022-08-04T00:00:27.632Z,98484.94
2022-08-04T00:03:20.791Z,98483.97
2022-08-04T00:06:20.783Z,98485.09
2022-08-04T00:09:14.999Z,98482.88
2022-08-04T00:12:08.252Z,98481.31
2022-08-04T00:15:01.020Z,98476.84
2022-08-04T00:17:55.604Z,98476.66
2022-08-04T00:20:44.477Z,98482.03
2022-08-04T00:24:11.820Z,98487.88
2022-08-04T00:26:45.083Z,98486.72
2022-08-04T00:29:34.409Z,98492.53
2022-08-04T00:32:29.907Z,98485.03
2022-08-04T00:35:23.175Z,98484.44
2022-08-04T00:38:12.330Z,98481.56
2022-08-04T00:41:10.231Z,98480.59
2022-08-04T00:44:14.364Z,98490.81
2022-08-04T00:47:30.342Z,98486.91
2022-08-04T00:50:27.983Z,98486.84
2022-08-04T00:53:24.661Z,98492.25
2022-08-04T00:56:28.108Z,98486.84
2022-08-04T00:59:37.416Z,98487.34
2022-08-04T01:02:33.586Z,98493.72
2022-08-04T01:05:37.495Z,98493.13
2022-08-04T01:08:46.887Z,98488.94
2022-08-04T01:11:56.442Z,98496.78
2022-08-04T01:15:00.154Z,98488.50
2022-08-04T01:18:00.378Z,98492.59
2022-08-04T01:21:06.328Z,98487.88
2022-08-04T01:24:20.742Z,98500.13
2022-08-04T01:27:21.343Z,98498.09
2022-08-04T01:30:13.136Z,98488.91
2022-08-04T01:33:04.818Z,98490.03
2022-08-04T01:35:57.256Z,98492.81
2022-08-04T01:38:46.190Z,98486.03
2022-08-04T01:41:34.691Z,98484.38
2022-08-04T01:44:25.796Z,98480.53
2022-08-04T01:47:18.288Z,98481.16
2022-08-04T01:50:09.285Z,98489.25
2022-08-04T01:52:57.804Z,98490.88
2022-08-04T01:55:54.296Z,98483.56
2022-08-04T01:58:44.108Z,98487.41
2022-08-04T02:01:37.915Z,98481.63
2022-08-04T02:04:27.828Z,98483.69
2022-08-04T02:07:29.162Z,98484.25
2022-08-04T02:10:28.317Z,98470.09
2022-08-04T02:13:25.245Z,98478.72
2022-08-04T02:16:22.882Z,98479.56
2022-08-04T02:19:24.538Z,98480.06
2022-08-04T02:22:23.126Z,98478.25
2022-08-04T02:25:13.131Z,98463.28
2022-08-04T02:28:17.299Z,98472.03
2022-08-04T02:31:20.169Z,98478.25
2022-08-04T02:34:13.337Z,98471.69
2022-08-04T02:37:01.775Z,98471.69
2022-08-04T02:39:55.143Z,98470.31
2022-08-04T02:42:44.490Z,98461.72
2022-08-04T02:45:37.582Z,98467.72
2022-08-04T02:48:31.008Z,98466.00
2022-08-04T02:51:24.754Z,98473.69
2022-08-04T02:54:16.047Z,98467.97
2022-08-04T02:57:24.600Z,98471.66
2022-08-04T03:00:15.271Z,98468.22
2022-08-04T03:03:17.248Z,98468.22
2022-08-04T03:06:34.949Z,98462.44
2022-08-04T03:09:39.488Z,98464.47
2022-08-04T03:12:59.134Z,98461.13
2022-08-04T03:16:02.676Z,98464.47
2022-08-04T03:19:21.090Z,98472.44
2022-08-04T03:22:28.942Z,98468.88
2022-08-04T03:25:56.549Z,98472.25
2022-08-04T03:29:26.069Z,98482.81
2022-08-04T03:33:13.292Z,98471.59
2022-08-04T03:36:48.403Z,98476.00
2022-08-04T03:40:16.048Z,98480.53
2022-08-04T03:43:57.887Z,98480.53
2022-08-04T03:47:21.107Z,98487.44
2022-08-04T03:50:44.691Z,98476.22
2022-08-04T03:53:40.825Z,98480.66
2022-08-04T03:57:00.986Z,98479.34
2022-08-04T04:00:06.705Z,98479.66
2022-08-04T04:03:41.647Z,98483.75
2022-08-04T04:06:54.729Z,98476.28
2022-08-04T04:10:09.373Z,98482.53
2022-08-04T04:13:36.064Z,98484.13
2022-08-04T04:16:39.534Z,98483.75
2022-08-04T04:19:58.633Z,98487.16
2022-08-04T04:23:02.327Z,98486.13
2022-08-04T04:26:05.072Z,98491.75
2022-08-04T04:29:08.071Z,98492.91
2022-08-04T04:32:06.313Z,98494.44
2022-08-04T04:35:12.284Z,98498.25
2022-08-04T04:38:31.969Z,98501.63
2022-08-04T04:41:38.155Z,98500.72
2022-08-04T04:44:52.425Z,98505.03
2022-08-04T04:48:08.428Z,98507.72
2022-08-04T04:51:10.124Z,98512.13
2022-08-04T04:54:07.644Z,98518.88
2022-08-04T04:57:06.586Z,98512.59
2022-08-04T04:59:59.637Z,98514.81
2022-08-04T05:03:26.271Z,98515.34
2022-08-04T05:06:38.700Z,98512.56
2022-08-04T05:09:42.961Z,98523.78
2022-08-04T05:14:35.309Z,98516.16
2022-08-04T05:16:21.553Z,98504.72
2022-08-04T05:19:21.737Z,98514.34
2022-08-04T05:22:14.725Z,98516.44
2022-08-04T05:25:09.942Z,98524.00
2022-08-04T05:28:04.417Z,98518.28
2022-08-04T05:30:58.877Z,98522.28
2022-08-04T05:33:53.187Z,98526.66
2022-08-04T05:36:45.339Z,98528.25
2022-08-04T05:39:38.385Z,98527.16
2022-08-04T05:42:29.207Z,98524.97
2022-08-04T05:45:19.784Z,98532.13
2022-08-04T05:48:10.429Z,98539.13
2022-08-04T05:51:01.189Z,98534.41
2022-08-04T05:53:50.941Z,98534.22
2022-08-04T05:56:40.047Z,98540.09
2022-08-04T05:59:31.514Z,98544.03
2022-08-04T06:02:21.653Z,98530.59
2022-08-04T06:05:14.763Z,98541.09
2022-08-04T06:08:07.799Z,98541.28
2022-08-04T06:11:06.095Z,98538.28
2022-08-04T06:13:58.007Z,98539.97
2022-08-04T06:16:51.344Z,98539.00
2022-08-04T06:20:03.138Z,98549.53
2022-08-04T06:22:55.045Z,98542.00
2022-08-04T06:25:47.870Z,98554.34
2022-08-04T06:28:37.268Z,98550.94
2022-08-04T06:32:31.378Z,98551.81
2022-08-04T06:34:56.315Z,98548.56
2022-08-04T06:37:46.597Z,98543.13
2022-08-04T06:40:36.174Z,98546.25
2022-08-04T06:43:25.157Z,98543.31
2022-08-04T06:46:17.559Z,98548.41
2022-08-04T06:49:06.614Z,98547.13
2022-08-04T06:51:59.414Z,98542.13
2022-08-04T06:54:49.071Z,98539.50
2022-08-04T06:57:38.488Z,98537.28
2022-08-04T07:00:27.648Z,98541.22
2022-08-04T07:03:19.394Z,98544.81
2022-08-04T07:06:14.294Z,98540.34
2022-08-04T07:09:06.414Z,98541.28
2022-08-04T07:11:56.708Z,98539.78
2022-08-04T07:14:45.564Z,98540.06
2022-08-04T07:17:36.255Z,98534.78
2022-08-04T07:20:34.326Z,98531.69
2022-08-04T07:23:26.367Z,98538.28
2022-08-04T07:26:19.228Z,98534.28
2022-08-04T07:29:07.874Z,98542.25
2022-08-04T07:31:57.955Z,98538.41
2022-08-04T07:34:49.930Z,98536.66
2022-08-04T07:37:40.104Z,98538.34
2022-08-04T07:40:28.752Z,98538.84
2022-08-04T07:43:19.242Z,98536.88
2022-08-04T07:46:08.077Z,98544.56
2022-08-04T07:48:56.602Z,98544.81
2022-08-04T07:51:45.406Z,98539.09
2022-08-04T07:54:35.061Z,98542.16
2022-08-04T07:57:41.398Z,98536.56
2022-08-04T08:00:32.554Z,98542.97
2022-08-04T08:03:21.644Z,98539.69
2022-08-04T08:06:17.497Z,98538.22
2022-08-04T08:09:21.426Z,98530.34
2022-08-04T08:12:37.747Z,98537.47
2022-08-04T08:15:21.009Z,98539.72
2022-08-04T08:18:10.890Z,98538.75
2022-08-04T08:21:00.021Z,98539.34
2022-08-04T08:23:48.681Z,98537.84
2022-08-04T08:26:36.983Z,98531.41
2022-08-04T08:29:27.037Z,98533.06
2022-08-04T08:32:16.541Z,98536.78
2022-08-04T08:35:07.803Z,98542.47
2022-08-04T08:38:03.950Z,98533.50
2022-08-04T08:40:59.974Z,98537.69
2022-08-04T08:44:07.689Z,98539.19
2022-08-04T08:47:08.727Z,98531.72
2022-08-04T08:50:19.428Z,98539.03
2022-08-04T08:53:24.424Z,98543.22
2022-08-04T08:56:31.157Z,98540.22
2022-08-04T08:59:40.653Z,98538.28
2022-08-04T09:03:04.733Z,98538.00
2022-08-04T09:06:24.075Z,98528.25
2022-08-04T09:09:32.310Z,98530.72
2022-08-04T09:12:29.185Z,98535.03
2022-08-04T09:15:24.280Z,98535.97
2022-08-04T09:18:19.783Z,98531.63
2022-08-04T09:21:17.805Z,98533.44
2022-08-04T09:24:35.347Z,98542.66
2022-08-04T09:27:25.843Z,98544.38
2022-08-04T09:30:19.395Z,98535.16
2022-08-04T09:33:17.436Z,98540.34
2022-08-04T09:36:25.589Z,98535.88
2022-08-04T09:39:23.299Z,98540.16
2022-08-04T09:42:20.035Z,98521.88
2022-08-04T09:45:26.690Z,98528.75
2022-08-04T09:48:43.995Z,98528.53
2022-08-04T09:51:58.841Z,98522.06
2022-08-04T09:54:54.177Z,98528.72
2022-08-04T09:58:02.913Z,98527.31
2022-08-04T10:00:54.993Z,98514.56
2022-08-04T10:03:48.736Z,98521.88
2022-08-04T10:07:20.501Z,98523.25
2022-08-04T10:10:20.355Z,98523.78
2022-08-04T10:13:22.437Z,98519.13
2022-08-04T10:16:29.363Z,98513.78
2022-08-04T10:19:27.525Z,98513.19
2022-08-04T10:22:28.820Z,98516.19
2022-08-04T10:26:02.561Z,98505.56
2022-08-04T10:28:45.694Z,98502.63
2022-08-04T10:31:36.682Z,98502.13
2022-08-04T10:34:28.971Z,98500.00
2022-08-04T10:38:00.249Z,98497.78
2022-08-04T10:40:45.575Z,98489.31
2022-08-04T10:43:44.156Z,98495.09
2022-08-04T10:46:36.372Z,98499.06
2022-08-04T10:49:30.347Z,98503.44
2022-08-04T10:52:30.346Z,98492.41
2022-08-04T10:55:21.150Z,98495.94
2022-08-04T10:58:20.631Z,98490.53
2022-08-04T11:01:59.633Z,98492.22
2022-08-04T11:04:42.647Z,98490.41
2022-08-04T11:07:36.313Z,98500.44
2022-08-04T11:10:29.824Z,98499.75
2022-08-04T11:13:29.566Z,98497.13
2022-08-04T11:16:23.730Z,98506.88
2022-08-04T11:19:45.219Z,98497.59
2022-08-04T11:22:40.498Z,98490.41
2022-08-04T11:25:35.650Z,98497.13
2022-08-04T11:28:38.559Z,98491.31
2022-08-04T11:31:30.483Z,98495.78
2022-08-04T11:34:23.267Z,98485.00
2022-08-04T11:37:18.592Z,98490.59
2022-08-04T11:40:13.955Z,98486.63
2022-08-04T11:43:05.797Z,98497.50
2022-08-04T11:45:57.964Z,98493.56
2022-08-04T11:48:54.176Z,98489.94
2022-08-04T11:51:45.717Z,98482.78
2022-08-04T11:54:35.948Z,98486.78
2022-08-04T11:57:35.661Z,98479.78
2022-08-04T12:00:27.908Z,98479.72
2022-08-04T12:03:37.579Z,98478.06
2022-08-04T12:06:33.666Z,98478.22
2022-08-04T12:09:33.392Z,98470.13
2022-08-04T12:12:29.616Z,98467.41
2022-08-04T12:15:26.688Z,98465.22
2022-08-04T12:18:24.690Z,98458.41
2022-08-04T12:21:29.322Z,98447.53
2022-08-04T12:24:22.656Z,98451.56
2022-08-04T12:27:17.012Z,98455.75
2022-08-04T12:31:00.061Z,98454.94
2022-08-04T12:33:24.481Z,98448.41
2022-08-04T12:36:39.260Z,98450.88
2022-08-04T12:39:29.204Z,98451.97
2022-08-04T12:42:23.630Z,98449.25
2022-08-04T12:45:15.466Z,98442.16
2022-08-04T12:48:07.483Z,98445.19
2022-08-04T12:50:58.478Z,98438.06
2022-08-04T12:53:50.936Z,98438.75
2022-08-04T12:56:41.955Z,98435.72
2022-08-04T12:59:30.508Z,98440.34
2022-08-04T13:02:27.330Z,98440.94
2022-08-04T13:05:17.417Z,98425.06
2022-08-04T13:08:07.605Z,98427.53
2022-08-04T13:11:00.014Z,98434.25
2022-08-04T13:14:05.368Z,98423.19
2022-08-04T13:17:01.969Z,98427.59
2022-08-04T13:19:53.396Z,98410.78
2022-08-04T13:22:46.368Z,98416.47
2022-08-04T13:26:44.666Z,98415.88
2022-08-04T13:28:50.846Z,98420.09
2022-08-04T13:31:45.157Z,98415.00
2022-08-04T13:34:49.514Z,98417.50
2022-08-04T13:37:44.117Z,98410.34
2022-08-04T13:40:33.470Z,98416.31
2022-08-04T13:44:15.333Z,98407.69
2022-08-04T13:46:39.129Z,98410.53
2022-08-04T13:49:42.889Z,98402.56
2022-08-04T13:52:36.100Z,98402.81
2022-08-04T13:55:30.137Z,98402.19
2022-08-04T13:58:24.217Z,98396.75
2022-08-04T14:01:17.610Z,98401.75
2022-08-04T14:04:13.732Z,98394.81
2022-08-04T14:07:18.113Z,98395.06
2022-08-04T14:10:14.341Z,98390.47
2022-08-04T14:13:06.084Z,98388.38
2022-08-04T14:16:03.721Z,98389.50
2022-08-04T14:19:00.653Z,98388.13
2022-08-04T14:21:49.877Z,98377.72
2022-08-04T14:24:38.417Z,98383.91
2022-08-04T14:27:29.260Z,98373.28
2022-08-04T14:30:27.723Z,98382.84
2022-08-04T14:34:01.662Z,98377.41
2022-08-04T14:36:25.424Z,98369.69
2022-08-04T14:39:13.918Z,98369.50
2022-08-04T14:42:02.349Z,98367.47
2022-08-04T14:44:55.594Z,98369.81
2022-08-04T14:47:52.667Z,98359.63
2022-08-04T14:50:45.042Z,98358.09
2022-08-04T14:53:33.732Z,98364.97
2022-08-04T14:56:44.917Z,98369.53
2022-08-04T14:59:59.225Z,98362.66
2022-08-04T15:02:53.308Z,98362.88
2022-08-04T15:05:59.808Z,98366.44
2022-08-04T15:08:54.729Z,98360.56
2022-08-04T15:11:43.743Z,98357.31
2022-08-04T15:14:37.482Z,98364.81
2022-08-04T15:17:29.989Z,98363.38
2022-08-04T15:20:20.442Z,98358.66
2022-08-04T15:23:10.910Z,98356.75
2022-08-04T15:26:03.045Z,98354.84
2022-08-04T15:28:55.919Z,98352.44
2022-08-04T15:32:05.739Z,98348.59
2022-08-04T15:35:02.567Z,98350.44
2022-08-04T15:38:01.222Z,98352.66
2022-08-04T15:40:53.871Z,98351.41
2022-08-04T15:43:55.319Z,98352.19
2022-08-04T15:47:12.826Z,98353.91
2022-08-04T15:50:07.391Z,98353.28
2022-08-04T15:53:10.550Z,98345.09
2022-08-04T15:56:01.721Z,98343.06
2022-08-04T15:58:53.204Z,98344.94
2022-08-04T16:01:41.814Z,98347.09
2022-08-04T16:04:50.235Z,98347.19
2022-08-04T16:08:00.237Z,98342.81
2022-08-04T16:10:51.123Z,98346.72
2022-08-04T16:13:47.683Z,98342.34
2022-08-04T16:16:49.267Z,98345.06
2022-08-04T16:19:55.779Z,98338.72
2022-08-04T16:22:51.874Z,98331.47
2022-08-04T16:25:45.081Z,98327.50
2022-08-04T16:28:41.878Z,98326.91
2022-08-04T16:31:34.301Z,98329.97
2022-08-04T16:34:48.300Z,98332.00
2022-08-04T16:37:34.511Z,98330.66
2022-08-04T16:40:37.080Z,98327.25
2022-08-04T16:43:30.477Z,98329.84
2022-08-04T16:46:41.743Z,98327.66
2022-08-04T16:50:03.206Z,98321.44
2022-08-04T16:52:55.748Z,98318.72
2022-08-04T16:55:47.621Z,98324.19
2022-08-04T16:58:37.241Z,98330.69
2022-08-04T17:01:47.350Z,98325.22
2022-08-04T17:04:36.411Z,98330.16
2022-08-04T17:07:24.908Z,98326.34
2022-08-04T17:10:13.409Z,98318.75
2022-08-04T17:13:20.805Z,98324.78
2022-08-04T17:16:18.436Z,98321.75
2022-08-04T17:19:25.251Z,98324.72
2022-08-04T17:22:15.127Z,98323.25
2022-08-04T17:25:04.565Z,98324.78
2022-08-04T17:28:09.680Z,98320.91
2022-08-04T17:31:11.913Z,98323.16
2022-08-04T17:34:01.784Z,98321.69
2022-08-04T17:36:52.404Z,98319.81
2022-08-04T17:39:40.986Z,98324.53
2022-08-04T17:42:30.639Z,98317.63
2022-08-04T17:48:27.894Z,98319.34
2022-08-04T17:51:17.964Z,98318.16
2022-08-04T17:54:08.571Z,98318.38
2022-08-04T17:56:58.234Z,98314.47
2022-08-04T17:59:56.931Z,98317.44
2022-08-04T18:02:54.107Z,98325.34
2022-08-04T18:06:03.795Z,98321.31
2022-08-04T18:08:55.566Z,98323.34
2022-08-04T18:11:55.210Z,98323.66
2022-08-04T18:14:45.685Z,98331.03
2022-08-04T18:18:21.301Z,98326.91
2022-08-04T18:20:50.162Z,98334.34
2022-08-04T18:23:43.435Z,98330.03
2022-08-04T18:26:39.930Z,98334.16
2022-08-04T18:29:30.999Z,98336.56
2022-08-04T18:32:20.776Z,98342.88
2022-08-04T18:35:09.774Z,98340.50
2022-08-04T18:38:11.507Z,98337.53
2022-08-04T18:41:12.893Z,98347.78
2022-08-04T18:44:01.789Z,98344.50
2022-08-04T18:46:55.921Z,98339.75
2022-08-04T18:50:58.801Z,98338.16
2022-08-04T18:52:53.155Z,98351.41
2022-08-04T18:55:56.552Z,98351.38
2022-08-04T18:58:46.679Z,98360.44
2022-08-04T19:02:13.728Z,98353.66
2022-08-04T19:04:49.350Z,98343.31
2022-08-04T19:08:02.184Z,98345.91
2022-08-04T19:10:46.503Z,98348.25
2022-08-04T19:13:42.808Z,98354.88
2022-08-04T19:16:46.017Z,98357.72
2022-08-04T19:19:47.631Z,98355.38
2022-08-04T19:24:30.194Z,98354.66
2022-08-04T19:25:59.112Z,98352.69
2022-08-04T19:28:50.943Z,98352.09
2022-08-04T19:31:40.128Z,98348.66
2022-08-04T19:34:34.758Z,98349.13
2022-08-04T19:37:56.745Z,98351.06
2022-08-04T19:40:34.353Z,98345.50
2022-08-04T19:43:23.238Z,98345.91
2022-08-04T19:46:12.212Z,98353.25
2022-08-04T19:49:01.341Z,98350.38
2022-08-04T19:51:51.786Z,98347.81
2022-08-04T19:54:43.144Z,98344.56
2022-08-04T19:57:46.147Z,98348.47
2022-08-04T20:00:34.811Z,98343.97
2022-08-04T20:04:10.266Z,98354.50
2022-08-04T20:06:34.007Z,98346.84
2022-08-04T20:09:25.820Z,98343.53
2022-08-04T20:12:15.274Z,98342.59
2022-08-04T20:15:06.296Z,98346.09
2022-08-04T20:18:08.111Z,98346.66
2022-08-04T20:21:11.324Z,98353.84
2022-08-04T20:24:38.832Z,98353.66
2022-08-04T20:27:18.592Z,98350.81
2022-08-04T20:30:10.905Z,98350.75
2022-08-04T20:33:06.873Z,98340.88
2022-08-04T20:39:04.063Z,98351.19
2022-08-04T20:41:58.201Z,98347.78
2022-08-04T20:44:47.286Z,98353.28
2022-08-04T20:47:37.252Z,98355.56
2022-08-04T20:50:30.102Z,98353.59
2022-08-04T20:53:18.982Z,98348.84
2022-08-04T20:56:07.653Z,98342.34
2022-08-04T20:58:56.067Z,98348.66
2022-08-04T21:01:45.474Z,98344.16
2022-08-04T21:04:48.774Z,98345.47
2022-08-04T21:07:41.689Z,98352.28
2022-08-04T21:10:32.444Z,98348.03
2022-08-04T21:13:21.095Z,98344.88
2022-08-04T21:16:10.683Z,98345.28
2022-08-04T21:19:22.598Z,98343.25
2022-08-04T21:22:14.856Z,98352.34
2022-08-04T21:25:18.564Z,98338.06
2022-08-04T21:28:09.376Z,98344.88
2022-08-04T21:30:59.587Z,98349.41
2022-08-04T21:33:52.257Z,98336.28
2022-08-04T21:36:43.303Z,98341.97
2022-08-04T21:39:33.262Z,98337.38
2022-08-04T21:42:42.495Z,98344.38
2022-08-04T21:45:38.438Z,98345.88
2022-08-04T21:48:27.952Z,98336.88
2022-08-04T21:51:56.998Z,98333.31
2022-08-04T21:54:26.508Z,98341.44
2022-08-04T21:57:16.252Z,98337.72
2022-08-04T22:00:06.963Z,98336.22
2022-08-04T22:03:11.292Z,98333.44
2022-08-04T22:06:17.490Z,98332.91
2022-08-04T22:09:09.491Z,98338.81
2022-08-04T22:12:03.461Z,98332.63
2022-08-04T22:14:57.519Z,98336.03
2022-08-04T22:17:48.230Z,98336.44
2022-08-04T22:20:36.560Z,98331.75
2022-08-04T22:23:25.451Z,98327.44
2022-08-04T22:26:15.897Z,98330.25
2022-08-04T22:29:14.236Z,98328.59
2022-08-04T22:32:04.611Z,98330.47
2022-08-04T22:35:03.026Z,98328.41
2022-08-04T22:38:21.270Z,98321.81
2022-08-04T22:41:20.208Z,98329.16
2022-08-04T22:44:15.099Z,98330.50
2022-08-04T22:47:05.972Z,98323.19
2022-08-04T22:50:13.491Z,98318.69
2022-08-04T22:53:03.113Z,98318.72
2022-08-04T22:55:57.415Z,98323.19
2022-08-04T22:58:56.123Z,98325.66
2022-08-04T23:01:59.014Z,98313.25
2022-08-04T23:04:54.055Z,98309.34
2022-08-04T23:07:49.260Z,98304.25
2022-08-04T23:10:43.866Z,98296.91
2022-08-04T23:13:33.067Z,98297.50
2022-08-04T23:16:21.386Z,98303.69
2022-08-04T23:19:15.349Z,98299.56
2022-08-04T23:22:05.759Z,98297.66
2022-08-04T23:24:55.553Z,98293.03
2022-08-04T23:27:50.564Z,98292.22
2022-08-04T23:30:39.661Z,98296.19
2022-08-04T23:33:50.566Z,98289.97
2022-08-04T23:36:40.616Z,98285.09
2022-08-04T23:40:03.871Z,98286.22
2022-08-04T23:42:39.021Z,98273.66
2022-08-04T23:46:04.526Z,98279.09
2022-08-04T23:48:41.559Z,98277.94
2022-08-04T23:51:30.140Z,98276.44
2022-08-04T23:54:25.719Z,98276.06
2022-08-04T23:57:17.278Z,98274.38
